Time,TemperatureF,DewpointF,PressureIn,WindDirection,WindDirectionDegrees,WindSpeedMPH,WindSpeedGustMPH,Humidity,HourlyPrecipIn,Conditions,Clouds,dailyrainin,SoftwareType,DateUTC
2013-06-15 00:01:00,60.9,46.0,29.85,North,5,0.0,0.0,58,0.00,,,0.06,Wunderground v.1.15,2013-06-15 04:01:00,
2013-06-15 00:02:00,60.9,46.5,29.85,North,5,0.0,0.0,59,0.00,,,0.06,Wunderground v.1.15,2013-06-15 04:02:00,
2013-06-15 00:03:00,60.7,46.3,29.85,North,5,0.0,0.0,59,0.00,,,0.06,Wunderground v.1.15,2013-06-15 04:03:00,
2013-06-15 00:05:00,60.7,46.3,29.85,North,5,0.0,0.0,59,0.00,,,0.06,Wunderground v.1.15,2013-06-15 04:05:00,
2013-06-15 00:08:00,60.5,46.1,29.85,North,5,0.0,0.0,59,0.00,,,0.06,Wunderground v.1.15,2013-06-15 04:08:00,
2013-06-15 00:13:00,60.2,45.8,29.85,North,5,0.0,0.0,59,0.00,,,0.06,Wunderground v.1.15,2013-06-15 04:13:00,
2013-06-15 00:19:00,59.9,46.0,29.85,North,5,0.0,0.0,60,0.00,,,0.06,Wunderground v.1.15,2013-06-15 04:19:00,
2013-06-15 00:24:00,59.8,45.9,29.85,North,5,0.0,0.0,60,0.00,,,0.06,Wunderground v.1.15,2013-06-15 04:24:00,
2013-06-15 00:29:00,59.5,46.0,29.85,North,5,0.0,0.0,61,0.00,,,0.06,Wunderground v.1.15,2013-06-15 04:29:00,
2013-06-15 00:35:00,59.2,46.2,29.85,North,5,0.0,0.0,62,0.00,,,0.06,Wunderground v.1.15,2013-06-15 04:35:00,
2013-06-15 00:41:00,58.7,46.1,29.85,North,5,0.0,0.0,63,0.00,,,0.06,Wunderground v.1.15,2013-06-15 04:41:00,
2013-06-15 00:46:00,58.3,46.2,29.85,North,5,0.0,0.0,64,0.00,,,0.06,Wunderground v.1.15,2013-06-15 04:46:00,
2013-06-15 00:52:00,57.6,46.3,29.85,North,5,0.0,0.0,66,0.00,,,0.06,Wunderground v.1.15,2013-06-15 04:52:00,
2013-06-15 00:58:00,57.0,46.1,29.85,North,5,0.0,0.0,67,0.00,,,0.06,Wunderground v.1.15,2013-06-15 04:58:00,
2013-06-15 01:03:00,56.5,46.1,29.85,North,5,0.0,0.0,68,0.00,,,0.06,Wunderground v.1.15,2013-06-15 05:03:00,
2013-06-15 01:09:00,55.9,45.9,29.85,North,5,0.0,0.0,69,0.00,,,0.06,Wunderground v.1.15,2013-06-15 05:09:00,
2013-06-15 01:15:00,55.6,46.0,29.85,North,5,0.0,0.0,70,0.00,,,0.06,Wunderground v.1.15,2013-06-15 05:15:00,
2013-06-15 01:20:00,55.4,45.8,29.85,North,5,0.0,0.0,70,0.00,,,0.06,Wunderground v.1.15,2013-06-15 05:20:00,
2013-06-15 01:26:00,55.4,45.8,29.85,North,5,0.0,0.0,70,0.00,,,0.06,Wunderground v.1.15,2013-06-15 05:26:00,
2013-06-15 01:31:00,55.4,45.4,29.86,North,5,0.0,0.0,69,0.00,,,0.06,Wunderground v.1.15,2013-06-15 05:31:00,
2013-06-15 01:36:00,55.4,45.4,29.86,North,5,0.0,0.0,69,0.00,,,0.06,Wunderground v.1.15,2013-06-15 05:36:00,
2013-06-15 01:42:00,55.3,45.3,29.86,North,5,0.0,0.0,69,0.00,,,0.06,Wunderground v.1.15,2013-06-15 05:42:00,
2013-06-15 01:47:00,55.0,45.0,29.86,North,5,0.0,0.0,69,0.00,,,0.06,Wunderground v.1.15,2013-06-15 05:47:00,
2013-06-15 01:53:00,54.7,45.1,29.86,North,5,0.0,0.0,70,0.00,,,0.06,Wunderground v.1.15,2013-06-15 05:53:00,
2013-06-15 01:58:00,54.4,45.2,29.87,North,5,0.0,0.0,71,0.00,,,0.06,Wunderground v.1.15,2013-06-15 05:58:00,
2013-06-15 02:03:00,54.1,44.9,29.87,North,5,0.0,0.0,71,0.00,,,0.06,Wunderground v.1.15,2013-06-15 06:03:00,
2013-06-15 02:08:00,53.9,44.7,29.87,North,5,0.0,0.0,71,0.00,,,0.06,Wunderground v.1.15,2013-06-15 06:08:00,
2013-06-15 02:13:00,54.1,44.9,29.87,North,5,0.0,0.0,71,0.00,,,0.06,Wunderground v.1.15,2013-06-15 06:13:00,
2013-06-15 02:18:00,54.1,44.9,29.87,North,5,0.0,0.0,71,0.00,,,0.06,Wunderground v.1.15,2013-06-15 06:18:00,
2013-06-15 02:23:00,53.9,45.1,29.87,North,5,0.0,0.0,72,0.00,,,0.06,Wunderground v.1.15,2013-06-15 06:23:00,
2013-06-15 02:28:00,53.9,44.7,29.88,North,5,1.0,1.0,71,0.00,,,0.06,Wunderground v.1.15,2013-06-15 06:28:00,
2013-06-15 02:33:00,54.5,44.2,29.88,North,5,0.0,2.0,68,0.00,,,0.06,Wunderground v.1.15,2013-06-15 06:33:00,
2013-06-15 02:38:00,55.0,44.2,29.88,North,5,0.0,2.0,67,0.00,,,0.06,Wunderground v.1.15,2013-06-15 06:38:00,
2013-06-15 02:43:00,55.1,44.3,29.88,North,5,0.0,2.0,67,0.00,,,0.06,Wunderground v.1.15,2013-06-15 06:43:00,
2013-06-15 02:48:00,55.1,44.3,29.88,North,5,0.0,2.0,67,0.00,,,0.06,Wunderground v.1.15,2013-06-15 06:48:00,
2013-06-15 02:53:00,55.1,44.3,29.88,North,5,0.0,1.0,67,0.00,,,0.06,Wunderground v.1.15,2013-06-15 06:53:00,
2013-06-15 02:58:00,55.3,44.5,29.88,North,5,0.0,1.0,67,0.00,,,0.06,Wunderground v.1.15,2013-06-15 06:58:00,
2013-06-15 03:04:00,55.1,44.3,29.88,North,5,0.0,1.0,67,0.00,,,0.06,Wunderground v.1.15,2013-06-15 07:04:00,
2013-06-15 03:09:00,54.7,44.7,29.88,North,5,0.0,1.0,69,0.00,,,0.06,Wunderground v.1.15,2013-06-15 07:09:00,
2013-06-15 03:14:00,53.8,44.6,29.88,North,5,0.0,0.0,71,0.00,,,0.06,Wunderground v.1.15,2013-06-15 07:14:00,
2013-06-15 03:19:00,52.9,44.8,29.88,North,5,0.0,0.0,74,0.00,,,0.06,Wunderground v.1.15,2013-06-15 07:19:00,
2013-06-15 03:24:00,52.3,44.6,29.88,North,5,0.0,0.0,75,0.00,,,0.06,Wunderground v.1.15,2013-06-15 07:24:00,
2013-06-15 03:29:00,51.7,44.7,29.88,North,5,0.0,0.0,77,0.00,,,0.06,Wunderground v.1.15,2013-06-15 07:29:00,
2013-06-15 03:34:00,51.7,45.1,29.88,North,5,0.0,1.0,78,0.00,,,0.06,Wunderground v.1.15,2013-06-15 07:34:00,
2013-06-15 03:39:00,51.9,44.9,29.88,North,5,0.0,1.0,77,0.00,,,0.06,Wunderground v.1.15,2013-06-15 07:39:00,
2013-06-15 03:44:00,51.7,44.7,29.89,North,5,0.0,0.0,77,0.00,,,0.06,Wunderground v.1.15,2013-06-15 07:44:00,
2013-06-15 03:49:00,51.3,44.7,29.89,North,5,0.0,0.0,78,0.00,,,0.06,Wunderground v.1.15,2013-06-15 07:49:00,
2013-06-15 03:54:00,51.1,44.8,29.89,North,5,0.0,0.0,79,0.00,,,0.06,Wunderground v.1.15,2013-06-15 07:54:00,
2013-06-15 03:59:00,51.0,44.7,29.90,North,5,0.0,0.0,79,0.00,,,0.06,Wunderground v.1.15,2013-06-15 07:59:00,
2013-06-15 04:04:00,50.7,44.4,29.90,North,5,0.0,0.0,79,0.00,,,0.06,Wunderground v.1.15,2013-06-15 08:04:00,
2013-06-15 04:09:00,50.8,44.5,29.90,North,5,0.0,0.0,79,0.00,,,0.06,Wunderground v.1.15,2013-06-15 08:09:00,
2013-06-15 04:14:00,51.4,44.8,29.90,North,5,0.0,0.0,78,0.00,,,0.06,Wunderground v.1.15,2013-06-15 08:14:00,
2013-06-15 04:19:00,52.0,44.7,29.90,North,5,0.0,1.0,76,0.00,,,0.06,Wunderground v.1.15,2013-06-15 08:19:00,
2013-06-15 04:24:00,52.6,44.5,29.90,North,5,0.0,0.0,74,0.00,,,0.06,Wunderground v.1.15,2013-06-15 08:24:00,
2013-06-15 04:29:00,52.9,44.1,29.91,North,5,0.0,0.0,72,0.00,,,0.06,Wunderground v.1.15,2013-06-15 08:29:00,
2013-06-15 04:34:00,53.2,44.4,29.91,North,5,0.0,0.0,72,0.00,,,0.06,Wunderground v.1.15,2013-06-15 08:34:00,
2013-06-15 04:39:00,53.3,44.9,29.91,North,5,0.0,0.0,73,0.00,,,0.06,Wunderground v.1.15,2013-06-15 08:39:00,
2013-06-15 04:44:00,53.3,44.5,29.91,North,5,0.0,0.0,72,0.00,,,0.00,Wunderground v.1.15,2013-06-15 08:44:00,
2013-06-15 04:49:00,53.2,44.8,29.91,North,5,0.0,0.0,73,0.00,,,0.00,Wunderground v.1.15,2013-06-15 08:49:00,
2013-06-15 04:54:00,52.9,44.5,29.91,North,5,0.0,0.0,73,0.00,,,0.00,Wunderground v.1.15,2013-06-15 08:54:00,
2013-06-15 04:59:00,52.5,44.4,29.91,North,5,0.0,0.0,74,0.00,,,0.00,Wunderground v.1.15,2013-06-15 08:59:00,
2013-06-15 05:04:00,51.9,44.2,29.91,North,5,0.0,0.0,75,0.00,,,0.00,Wunderground v.1.15,2013-06-15 09:04:00,
2013-06-15 05:09:00,51.6,43.9,29.91,North,5,0.0,0.0,75,0.00,,,0.00,Wunderground v.1.15,2013-06-15 09:09:00,
2013-06-15 05:14:00,51.6,44.6,29.91,North,5,0.0,0.0,77,0.00,,,0.00,Wunderground v.1.15,2013-06-15 09:14:00,
2013-06-15 05:19:00,51.6,44.6,29.91,North,5,0.0,0.0,77,0.00,,,0.00,Wunderground v.1.15,2013-06-15 09:19:00,
2013-06-15 05:24:00,51.4,44.4,29.91,North,5,0.0,0.0,77,0.00,,,0.00,Wunderground v.1.15,2013-06-15 09:24:00,
2013-06-15 05:29:00,51.4,44.4,29.91,North,5,0.0,0.0,77,0.00,,,0.00,Wunderground v.1.15,2013-06-15 09:29:00,
2013-06-15 05:34:00,51.4,44.4,29.91,North,5,0.0,0.0,77,0.00,,,0.00,Wunderground v.1.15,2013-06-15 09:34:00,
2013-06-15 05:39:00,51.1,44.5,29.91,North,5,0.0,0.0,78,0.00,,,0.00,Wunderground v.1.15,2013-06-15 09:39:00,
2013-06-15 05:44:00,51.0,44.4,29.92,North,5,0.0,0.0,78,0.00,,,0.00,Wunderground v.1.15,2013-06-15 09:44:00,
2013-06-15 05:49:00,51.0,44.7,29.92,North,5,0.0,0.0,79,0.00,,,0.00,Wunderground v.1.15,2013-06-15 09:49:00,
2013-06-15 05:54:00,51.0,44.7,29.92,North,5,0.0,0.0,79,0.00,,,0.00,Wunderground v.1.15,2013-06-15 09:54:00,
2013-06-15 05:59:00,51.0,44.7,29.93,North,5,0.0,0.0,79,0.00,,,0.00,Wunderground v.1.15,2013-06-15 09:59:00,
2013-06-15 06:04:00,51.0,45.0,29.93,North,5,0.0,0.0,80,0.00,,,0.00,Wunderground v.1.15,2013-06-15 10:04:00,
2013-06-15 06:09:00,51.1,44.8,29.93,North,5,0.0,0.0,79,0.00,,,0.00,Wunderground v.1.15,2013-06-15 10:09:00,
2013-06-15 06:14:00,51.6,45.6,29.92,North,5,0.0,0.0,80,0.00,,,0.00,Wunderground v.1.15,2013-06-15 10:14:00,
2013-06-15 06:19:00,52.0,45.7,29.92,North,5,0.0,0.0,79,0.00,,,0.00,Wunderground v.1.15,2013-06-15 10:19:00,
2013-06-15 06:24:00,52.2,46.5,29.92,North,5,0.0,0.0,81,0.00,,,0.00,Wunderground v.1.15,2013-06-15 10:24:00,
2013-06-15 06:29:00,52.3,47.0,29.93,North,5,0.0,0.0,82,0.00,,,0.00,Wunderground v.1.15,2013-06-15 10:29:00,
2013-06-15 06:34:00,52.9,47.6,29.93,North,5,0.0,0.0,82,0.00,,,0.00,Wunderground v.1.15,2013-06-15 10:34:00,
2013-06-15 06:39:00,53.6,48.2,29.93,North,5,0.0,0.0,82,0.00,,,0.00,Wunderground v.1.15,2013-06-15 10:39:00,
2013-06-15 06:44:00,54.5,48.5,29.93,North,5,0.0,0.0,80,0.00,,,0.00,Wunderground v.1.15,2013-06-15 10:44:00,
2013-06-15 06:49:00,55.4,49.3,29.93,North,5,0.0,0.0,80,0.00,,,0.00,Wunderground v.1.15,2013-06-15 10:49:00,
2013-06-15 06:54:00,56.3,49.2,29.93,North,5,0.0,0.0,77,0.00,,,0.00,Wunderground v.1.15,2013-06-15 10:54:00,
2013-06-15 06:59:00,57.2,49.3,29.93,North,5,0.0,0.0,75,0.00,,,0.00,Wunderground v.1.15,2013-06-15 10:59:00,
2013-06-15 07:04:00,57.8,49.2,29.93,North,5,0.0,0.0,73,0.00,,,0.00,Wunderground v.1.15,2013-06-15 11:04:00,
2013-06-15 07:09:00,58.0,48.6,29.93,North,5,0.0,0.0,71,0.00,,,0.00,Wunderground v.1.15,2013-06-15 11:09:00,
2013-06-15 07:14:00,58.1,48.7,29.94,North,5,0.0,0.0,71,0.00,,,0.00,Wunderground v.1.15,2013-06-15 11:14:00,
2013-06-15 07:19:00,58.6,49.2,29.94,North,5,0.0,0.0,71,0.00,,,0.00,Wunderground v.1.15,2013-06-15 11:19:00,
2013-06-15 07:24:00,58.7,49.3,29.94,North,5,0.0,0.0,71,0.00,,,0.00,Wunderground v.1.15,2013-06-15 11:24:00,
2013-06-15 07:29:00,58.7,49.3,29.94,North,5,0.0,0.0,71,0.00,,,0.00,Wunderground v.1.15,2013-06-15 11:29:00,
2013-06-15 07:34:00,59.0,49.6,29.94,North,5,0.0,0.0,71,0.00,,,0.00,Wunderground v.1.15,2013-06-15 11:34:00,
2013-06-15 07:39:00,59.3,50.3,29.94,North,5,0.0,0.0,72,0.00,,,0.00,Wunderground v.1.15,2013-06-15 11:39:00,
2013-06-15 07:45:00,59.5,50.8,29.94,North,5,0.0,0.0,73,0.00,,,0.00,Wunderground v.1.15,2013-06-15 11:45:00,
2013-06-15 07:50:00,59.5,51.2,29.94,North,5,0.0,0.0,74,0.00,,,0.00,Wunderground v.1.15,2013-06-15 11:50:00,
2013-06-15 07:55:00,59.6,50.6,29.94,North,5,0.0,0.0,72,0.00,,,0.00,Wunderground v.1.15,2013-06-15 11:55:00,
2013-06-15 08:00:00,60.2,50.4,29.95,North,5,0.0,0.0,70,0.00,,,0.00,Wunderground v.1.15,2013-06-15 12:00:00,
2013-06-15 08:05:00,60.7,48.4,29.95,North,5,0.0,1.0,64,0.00,,,0.00,Wunderground v.1.15,2013-06-15 12:05:00,
2013-06-15 08:10:00,61.5,46.6,29.95,North,5,1.0,1.0,58,0.00,,,0.00,Wunderground v.1.15,2013-06-15 12:10:00,
2013-06-15 08:15:00,62.4,47.4,29.95,North,5,0.0,1.0,58,0.00,,,0.00,Wunderground v.1.15,2013-06-15 12:15:00,
2013-06-15 08:20:00,63.1,45.7,29.95,North,5,0.0,1.0,53,0.00,,,0.00,Wunderground v.1.15,2013-06-15 12:20:00,
2013-06-15 08:25:00,63.7,46.7,29.95,North,5,0.0,1.0,54,0.00,,,0.00,Wunderground v.1.15,2013-06-15 12:25:00,
2013-06-15 08:30:00,64.2,47.2,29.96,North,5,0.0,0.0,54,0.00,,,0.00,Wunderground v.1.15,2013-06-15 12:30:00,
2013-06-15 08:35:00,64.3,45.8,29.96,North,5,0.0,2.0,51,0.00,,,0.00,Wunderground v.1.15,2013-06-15 12:35:00,
2013-06-15 08:40:00,64.2,44.1,29.96,North,5,1.0,2.0,48,0.00,,,0.00,Wunderground v.1.15,2013-06-15 12:40:00,
2013-06-15 08:45:00,64.5,44.9,29.95,North,5,3.0,3.0,49,0.00,,,0.00,Wunderground v.1.15,2013-06-15 12:45:00,
2013-06-15 08:50:00,64.5,46.5,29.95,North,5,0.0,0.0,52,0.00,,,0.00,Wunderground v.1.15,2013-06-15 12:50:00,
2013-06-15 08:55:00,65.0,47.4,29.95,North,5,1.0,4.0,53,0.00,,,0.00,Wunderground v.1.15,2013-06-15 12:55:00,
2013-06-15 09:00:00,65.5,47.9,29.95,North,5,4.0,4.0,53,0.00,,,0.00,Wunderground v.1.15,2013-06-15 13:00:00,
2013-06-15 09:05:00,65.6,47.0,29.95,North,5,0.0,4.0,51,0.00,,,0.00,Wunderground v.1.15,2013-06-15 13:05:00,
2013-06-15 09:10:00,65.6,47.0,29.95,North,5,0.0,1.0,51,0.00,,,0.00,Wunderground v.1.15,2013-06-15 13:10:00,
2013-06-15 09:15:00,66.0,46.8,29.95,North,5,0.0,2.0,50,0.00,,,0.00,Wunderground v.1.15,2013-06-15 13:15:00,
2013-06-15 09:20:00,66.0,45.7,29.95,North,5,0.0,0.0,48,0.00,,,0.00,Wunderground v.1.15,2013-06-15 13:20:00,
2013-06-15 09:25:00,66.3,47.6,29.95,North,5,0.0,4.0,51,0.00,,,0.00,Wunderground v.1.15,2013-06-15 13:25:00,
2013-06-15 09:30:00,67.1,46.7,29.95,North,5,0.0,1.0,48,0.00,,,0.00,Wunderground v.1.15,2013-06-15 13:30:00,
2013-06-15 09:35:00,67.4,46.5,29.95,North,5,2.0,2.0,47,0.00,,,0.00,Wunderground v.1.15,2013-06-15 13:35:00,
2013-06-15 09:40:00,67.6,46.1,29.95,North,5,2.0,3.0,46,0.00,,,0.00,Wunderground v.1.15,2013-06-15 13:40:00,
2013-06-15 09:45:00,66.9,44.9,29.95,North,5,1.0,4.0,45,0.00,,,0.00,Wunderground v.1.15,2013-06-15 13:45:00,
2013-06-15 09:50:00,66.0,45.2,29.95,North,5,0.0,1.0,47,0.00,,,0.00,Wunderground v.1.15,2013-06-15 13:50:00,
2013-06-15 09:55:00,66.1,48.0,29.95,North,5,0.0,2.0,52,0.00,,,0.00,Wunderground v.1.15,2013-06-15 13:55:00,
2013-06-15 10:00:00,66.6,46.8,29.94,North,5,0.0,2.0,49,0.00,,,0.00,Wunderground v.1.15,2013-06-15 14:00:00,
2013-06-15 10:05:00,67.1,42.0,29.94,North,5,0.0,2.0,40,0.00,,,0.00,Wunderground v.1.15,2013-06-15 14:05:00,
2013-06-15 10:10:00,67.8,43.9,29.94,North,5,0.0,0.0,42,0.00,,,0.00,Wunderground v.1.15,2013-06-15 14:10:00,
2013-06-15 10:15:00,68.4,44.4,29.94,North,5,0.0,1.0,42,0.00,,,0.00,Wunderground v.1.15,2013-06-15 14:15:00,
2013-06-15 10:20:00,68.3,46.1,29.94,North,5,0.0,0.0,45,0.00,,,0.00,Wunderground v.1.15,2013-06-15 14:20:00,
2013-06-15 10:25:00,67.6,43.7,29.94,North,5,0.0,2.0,42,0.00,,,0.00,Wunderground v.1.15,2013-06-15 14:25:00,
2013-06-15 10:30:00,68.8,46.6,29.94,North,5,0.0,0.0,45,0.00,,,0.00,Wunderground v.1.15,2013-06-15 14:30:00,
2013-06-15 10:35:00,69.9,45.1,29.94,North,5,0.0,2.0,41,0.00,,,0.00,Wunderground v.1.15,2013-06-15 14:35:00,
2013-06-15 10:40:00,69.3,43.9,29.94,North,5,0.0,0.0,40,0.00,,,0.00,Wunderground v.1.15,2013-06-15 14:40:00,
2013-06-15 10:45:00,69.3,41.9,29.94,North,5,0.0,1.0,37,0.00,,,0.00,Wunderground v.1.15,2013-06-15 14:45:00,
2013-06-15 10:50:00,68.8,44.8,29.94,North,5,0.0,0.0,42,0.00,,,0.00,Wunderground v.1.15,2013-06-15 14:50:00,
2013-06-15 10:55:00,69.1,42.4,29.94,North,5,0.0,1.0,38,0.00,,,0.00,Wunderground v.1.15,2013-06-15 14:55:00,
2013-06-15 11:00:00,69.3,45.8,29.94,NE,44,0.0,2.0,43,0.00,,,0.00,Wunderground v.1.15,2013-06-15 15:00:00,
2013-06-15 11:05:00,70.1,44.0,29.94,NE,43,1.0,9.0,39,0.00,,,0.00,Wunderground v.1.15,2013-06-15 15:05:00,
2013-06-15 11:10:00,70.8,43.2,29.94,NE,43,0.0,1.0,37,0.00,,,0.00,Wunderground v.1.15,2013-06-15 15:10:00,
2013-06-15 11:15:00,71.3,43.7,29.94,NE,43,0.0,1.0,37,0.00,,,0.00,Wunderground v.1.15,2013-06-15 15:15:00,
2013-06-15 11:20:00,71.5,47.2,29.94,NNE,30,0.0,4.0,42,0.00,,,0.00,Wunderground v.1.15,2013-06-15 15:20:00,
2013-06-15 11:25:00,70.9,43.3,29.94,NNW,346,4.0,9.0,37,0.00,,,0.00,Wunderground v.1.15,2013-06-15 15:25:00,
2013-06-15 11:30:00,71.3,42.2,29.93,NNW,346,2.0,3.0,35,0.00,,,0.00,Wunderground v.1.15,2013-06-15 15:30:00,
2013-06-15 11:35:00,71.6,45.3,29.93,NNW,347,0.0,5.0,39,0.00,,,0.00,Wunderground v.1.15,2013-06-15 15:35:00,
2013-06-15 11:40:00,71.8,44.8,29.93,NNW,347,0.0,1.0,38,0.00,,,0.00,Wunderground v.1.15,2013-06-15 15:40:00,
2013-06-15 11:45:00,72.1,42.2,29.93,NNW,347,0.0,4.0,34,0.00,,,0.00,Wunderground v.1.15,2013-06-15 15:45:00,
2013-06-15 11:50:00,72.3,44.6,29.93,NNE,16,1.0,4.0,37,0.00,,,0.00,Wunderground v.1.15,2013-06-15 15:50:00,
2013-06-15 11:55:00,73.5,45.6,29.93,NNE,24,0.0,4.0,37,0.00,,,0.00,Wunderground v.1.15,2013-06-15 15:55:00,
2013-06-15 12:00:00,74.4,43.4,29.93,NNE,27,0.0,1.0,33,0.00,,,0.00,Wunderground v.1.15,2013-06-15 16:00:00,
2013-06-15 12:05:00,74.7,46.0,29.93,East,81,5.0,5.0,36,0.00,,,0.00,Wunderground v.1.15,2013-06-15 16:05:00,
2013-06-15 12:10:00,74.2,44.0,29.93,East,82,3.0,4.0,34,0.00,,,0.00,Wunderground v.1.15,2013-06-15 16:10:00,
2013-06-15 12:16:00,74.6,45.9,29.93,ENE,63,7.0,7.0,36,0.00,,,0.00,Wunderground v.1.15,2013-06-15 16:16:00,
2013-06-15 12:21:00,73.0,43.0,29.93,NW,325,1.0,6.0,34,0.00,,,0.00,Wunderground v.1.15,2013-06-15 16:21:00,
2013-06-15 12:26:00,72.3,43.1,29.93,NNW,334,1.0,9.0,35,0.00,,,0.00,Wunderground v.1.15,2013-06-15 16:26:00,
2013-06-15 12:31:00,71.1,41.3,29.93,NNW,334,0.0,2.0,34,0.00,,,0.00,Wunderground v.1.15,2013-06-15 16:31:00,
2013-06-15 12:36:00,72.7,48.3,29.93,NNW,334,0.0,2.0,42,0.00,,,0.00,Wunderground v.1.15,2013-06-15 16:36:00,
2013-06-15 12:41:00,72.8,45.0,29.93,WNW,297,5.0,9.0,37,0.00,,,0.00,Wunderground v.1.15,2013-06-15 16:41:00,
2013-06-15 12:46:00,71.1,47.5,29.92,WNW,285,0.0,9.0,43,0.00,,,0.00,Wunderground v.1.15,2013-06-15 16:46:00,
2013-06-15 12:51:00,70.9,44.0,29.92,WNW,284,0.0,2.0,38,0.00,,,0.00,Wunderground v.1.15,2013-06-15 16:51:00,
2013-06-15 12:56:00,71.3,43.7,29.92,West,277,3.0,5.0,37,0.00,,,0.00,Wunderground v.1.15,2013-06-15 16:56:00,
2013-06-15 13:01:00,71.3,47.6,29.92,West,277,0.0,5.0,43,0.00,,,0.00,Wunderground v.1.15,2013-06-15 17:01:00,
2013-06-15 13:06:00,71.3,43.7,29.92,West,277,0.0,5.0,37,0.00,,,0.00,Wunderground v.1.15,2013-06-15 17:06:00,
2013-06-15 13:11:00,73.0,45.2,29.92,West,271,4.0,4.0,37,0.00,,,0.00,Wunderground v.1.15,2013-06-15 17:11:00,
2013-06-15 13:16:00,72.8,45.0,29.91,West,269,0.0,4.0,37,0.00,,,0.00,Wunderground v.1.15,2013-06-15 17:16:00,
2013-06-15 13:21:00,72.8,42.8,29.91,SW,215,0.0,4.0,34,0.00,,,0.00,Wunderground v.1.15,2013-06-15 17:21:00,
2013-06-15 13:26:00,73.2,43.9,29.91,SSW,212,5.0,5.0,35,0.00,,,0.00,Wunderground v.1.15,2013-06-15 17:26:00,
2013-06-15 13:31:00,72.0,44.3,29.91,SE,140,0.0,2.0,37,0.00,,,0.00,Wunderground v.1.15,2013-06-15 17:31:00,
2013-06-15 13:36:00,72.5,46.8,29.91,SE,134,4.0,5.0,40,0.00,,,0.00,Wunderground v.1.15,2013-06-15 17:36:00,
2013-06-15 13:41:00,73.2,44.6,29.91,SE,134,1.0,4.0,36,0.00,,,0.00,Wunderground v.1.15,2013-06-15 17:41:00,
2013-06-15 13:46:00,73.0,43.7,29.90,SE,134,0.0,4.0,35,0.00,,,0.00,Wunderground v.1.15,2013-06-15 17:46:00,
2013-06-15 13:51:00,73.5,44.9,29.90,SE,135,3.0,4.0,36,0.00,,,0.00,Wunderground v.1.15,2013-06-15 17:51:00,
2013-06-15 13:56:00,73.5,47.0,29.90,SSW,211,6.0,6.0,39,0.00,,,0.00,Wunderground v.1.15,2013-06-15 17:56:00,
2013-06-15 14:01:00,73.0,45.2,29.90,SW,217,0.0,6.0,37,0.00,,,0.00,Wunderground v.1.15,2013-06-15 18:01:00,
2013-06-15 14:06:00,72.7,46.3,29.90,SW,215,0.0,6.0,39,0.00,,,0.00,Wunderground v.1.15,2013-06-15 18:06:00,
2013-06-15 14:11:00,72.1,44.4,29.90,SSW,203,2.0,6.0,37,0.00,,,0.00,Wunderground v.1.15,2013-06-15 18:11:00,
2013-06-15 14:16:00,72.1,44.4,29.90,SSW,203,0.0,6.0,37,0.00,,,0.00,Wunderground v.1.15,2013-06-15 18:16:00,
2013-06-15 14:21:00,73.5,48.4,29.90,SSW,203,0.0,1.0,41,0.00,,,0.00,Wunderground v.1.15,2013-06-15 18:21:00,
2013-06-15 14:26:00,74.4,44.2,29.90,SSW,198,1.0,4.0,34,0.00,,,0.00,Wunderground v.1.15,2013-06-15 18:26:00,
2013-06-15 14:31:00,73.5,44.2,29.89,SSW,198,1.0,3.0,35,0.00,,,0.00,Wunderground v.1.15,2013-06-15 18:31:00,
2013-06-15 14:37:00,74.6,45.9,29.89,SSW,198,0.0,3.0,36,0.00,,,0.00,Wunderground v.1.15,2013-06-15 18:37:00,
2013-06-15 14:42:00,75.8,46.2,29.89,SSW,198,0.0,1.0,35,0.00,,,0.00,Wunderground v.1.15,2013-06-15 18:42:00,
2013-06-15 14:47:00,76.0,43.2,29.88,SSW,202,2.0,3.0,31,0.00,,,0.00,Wunderground v.1.15,2013-06-15 18:47:00,
2013-06-15 14:52:00,74.9,43.0,29.88,West,268,0.0,6.0,32,0.00,,,0.00,Wunderground v.1.15,2013-06-15 18:52:00,
2013-06-15 14:57:00,73.9,42.2,29.88,West,267,0.0,6.0,32,0.00,,,0.00,Wunderground v.1.15,2013-06-15 18:57:00,
2013-06-15 15:02:00,74.7,45.2,29.88,West,267,0.0,1.0,35,0.00,,,0.00,Wunderground v.1.15,2013-06-15 19:02:00,
2013-06-15 15:07:00,75.1,44.0,29.88,West,267,0.0,1.0,33,0.00,,,0.00,Wunderground v.1.15,2013-06-15 19:07:00,
2013-06-15 15:12:00,75.8,45.4,29.88,West,270,0.0,1.0,34,0.00,,,0.00,Wunderground v.1.15,2013-06-15 19:12:00,
2013-06-15 15:17:00,77.2,43.4,29.88,SW,234,3.0,3.0,30,0.00,,,0.00,Wunderground v.1.15,2013-06-15 19:17:00,
2013-06-15 15:22:00,76.3,43.4,29.88,SW,227,0.0,1.0,31,0.00,,,0.00,Wunderground v.1.15,2013-06-15 19:22:00,
2013-06-15 15:27:00,77.0,48.0,29.88,SW,221,0.0,1.0,36,0.00,,,0.00,Wunderground v.1.15,2013-06-15 19:27:00,
2013-06-15 15:32:00,78.3,44.3,29.88,South,169,0.0,5.0,30,0.00,,,0.00,Wunderground v.1.15,2013-06-15 19:32:00,
2013-06-15 15:38:00,79.0,45.8,29.88,South,169,0.0,5.0,31,0.00,,,0.00,Wunderground v.1.15,2013-06-15 19:38:00,
2013-06-15 15:43:00,78.8,49.6,29.87,South,169,0.0,0.0,36,0.00,,,0.00,Wunderground v.1.15,2013-06-15 19:43:00,
2013-06-15 15:48:00,77.4,44.4,29.87,South,169,0.0,1.0,31,0.00,,,0.00,Wunderground v.1.15,2013-06-15 19:48:00,
2013-06-15 15:53:00,76.3,45.9,29.87,South,170,0.0,3.0,34,0.00,,,0.00,Wunderground v.1.15,2013-06-15 19:53:00,
2013-06-15 15:58:00,74.9,43.8,29.86,SSW,200,4.0,5.0,33,0.00,,,0.00,Wunderground v.1.15,2013-06-15 19:58:00,
2013-06-15 16:04:00,74.7,48.8,29.86,WNW,290,0.0,5.0,40,0.00,,,0.00,Wunderground v.1.15,2013-06-15 20:04:00,
2013-06-15 16:09:00,74.6,44.4,29.86,WNW,286,0.0,5.0,34,0.00,,,0.00,Wunderground v.1.15,2013-06-15 20:09:00,
2013-06-15 16:14:00,75.8,47.7,29.86,WNW,290,0.0,2.0,37,0.00,,,0.00,Wunderground v.1.15,2013-06-15 20:14:00,
2013-06-15 16:19:00,76.5,43.6,29.86,NNE,12,0.0,9.0,31,0.00,,,0.00,Wunderground v.1.15,2013-06-15 20:19:00,
2013-06-15 16:24:00,77.2,45.0,29.86,NNE,12,0.0,1.0,32,0.00,,,0.00,Wunderground v.1.15,2013-06-15 20:24:00,
2013-06-15 16:29:00,78.1,45.0,29.86,NNE,12,0.0,2.0,31,0.00,,,0.00,Wunderground v.1.15,2013-06-15 20:29:00,
2013-06-15 16:34:00,78.3,42.5,29.86,North,5,0.0,4.0,28,0.00,,,0.00,Wunderground v.1.15,2013-06-15 20:34:00,
2013-06-15 16:39:00,78.6,49.4,29.86,North,5,1.0,4.0,36,0.00,,,0.00,Wunderground v.1.15,2013-06-15 20:39:00,
2013-06-15 16:44:00,79.2,45.9,29.86,North,5,0.0,1.0,31,0.00,,,0.00,Wunderground v.1.15,2013-06-15 20:44:00,
2013-06-15 16:49:00,79.9,47.4,29.86,North,5,0.0,1.0,32,0.00,,,0.00,Wunderground v.1.15,2013-06-15 20:49:00,
2013-06-15 16:54:00,79.8,42.8,29.86,NE,48,4.0,6.0,27,0.00,,,0.00,Wunderground v.1.15,2013-06-15 20:54:00,
2013-06-15 16:59:00,79.2,47.6,29.86,NE,39,5.0,6.0,33,0.00,,,0.00,Wunderground v.1.15,2013-06-15 20:59:00,
2013-06-15 17:04:00,79.0,44.9,29.86,NNE,31,0.0,4.0,30,0.00,,,0.00,Wunderground v.1.15,2013-06-15 21:04:00,
2013-06-15 17:09:00,79.0,44.9,29.86,NNE,15,2.0,5.0,30,0.00,,,0.00,Wunderground v.1.15,2013-06-15 21:09:00,
2013-06-15 17:14:00,78.6,43.7,29.86,NNE,14,1.0,5.0,29,0.00,,,0.00,Wunderground v.1.15,2013-06-15 21:14:00,
2013-06-15 17:19:00,77.9,44.0,29.86,North,9,2.0,6.0,30,0.00,,,0.00,Wunderground v.1.15,2013-06-15 21:19:00,
2013-06-15 17:24:00,77.9,46.5,29.86,NNW,343,1.0,5.0,33,0.00,,,0.00,Wunderground v.1.15,2013-06-15 21:24:00,
2013-06-15 17:29:00,78.1,45.8,29.86,NNW,344,3.0,5.0,32,0.00,,,0.00,Wunderground v.1.15,2013-06-15 21:29:00,
2013-06-15 17:34:00,78.5,47.0,29.86,NNW,342,6.0,9.0,33,0.00,,,0.00,Wunderground v.1.15,2013-06-15 21:34:00,
2013-06-15 17:39:00,78.6,44.6,29.86,NNW,340,2.0,9.0,30,0.00,,,0.00,Wunderground v.1.15,2013-06-15 21:39:00,
2013-06-15 17:44:00,78.6,45.4,29.86,NNW,342,2.0,6.0,31,0.00,,,0.00,Wunderground v.1.15,2013-06-15 21:44:00,
2013-06-15 17:49:00,78.8,44.7,29.86,NNW,342,0.0,6.0,30,0.00,,,0.00,Wunderground v.1.15,2013-06-15 21:49:00,
2013-06-15 17:54:00,78.5,47.0,29.86,NNW,338,3.0,7.0,33,0.00,,,0.00,Wunderground v.1.15,2013-06-15 21:54:00,
2013-06-15 17:59:00,77.4,46.0,29.86,NNW,338,0.0,7.0,33,0.00,,,0.00,Wunderground v.1.15,2013-06-15 21:59:00,
2013-06-15 18:04:00,77.4,47.6,29.86,NNW,338,0.0,3.0,35,0.00,,,0.00,Wunderground v.1.15,2013-06-15 22:04:00,
2013-06-15 18:09:00,77.2,47.4,29.86,NNW,338,0.0,3.0,35,0.00,,,0.00,Wunderground v.1.15,2013-06-15 22:09:00,
2013-06-15 18:14:00,76.8,47.8,29.86,NNW,338,0.0,1.0,36,0.00,,,0.00,Wunderground v.1.15,2013-06-15 22:14:00,
2013-06-15 18:20:00,76.5,48.3,29.86,NNW,338,0.0,0.0,37,0.00,,,0.00,Wunderground v.1.15,2013-06-15 22:20:00,
2013-06-15 18:25:00,76.7,48.5,29.86,NNW,338,0.0,0.0,37,0.00,,,0.00,Wunderground v.1.15,2013-06-15 22:25:00,
2013-06-15 18:30:00,76.3,48.1,29.86,NNW,338,0.0,4.0,37,0.00,,,0.00,Wunderground v.1.15,2013-06-15 22:30:00,
2013-06-15 18:35:00,76.0,51.2,29.86,NNW,338,0.0,0.0,42,0.00,,,0.00,Wunderground v.1.15,2013-06-15 22:35:00,
2013-06-15 18:40:00,75.3,49.3,29.86,NNW,338,0.0,0.0,40,0.00,,,0.00,Wunderground v.1.15,2013-06-15 22:40:00,
2013-06-15 18:45:00,74.7,50.1,29.86,NNW,338,0.0,1.0,42,0.00,,,0.00,Wunderground v.1.15,2013-06-15 22:45:00,
2013-06-15 18:50:00,74.0,51.3,29.86,NNW,338,0.0,0.0,45,0.00,,,0.00,Wunderground v.1.15,2013-06-15 22:50:00,
2013-06-15 18:55:00,73.7,48.5,29.86,NNW,338,0.0,1.0,41,0.00,,,0.00,Wunderground v.1.15,2013-06-15 22:55:00,
2013-06-15 19:00:00,73.7,49.2,29.86,NNW,338,0.0,0.0,42,0.00,,,0.00,Wunderground v.1.15,2013-06-15 23:00:00,
2013-06-15 19:05:00,73.7,48.5,29.86,NNW,338,0.0,1.0,41,0.00,,,0.00,Wunderground v.1.15,2013-06-15 23:05:00,
2013-06-15 19:10:00,73.9,50.6,29.86,NNW,338,0.0,0.0,44,0.00,,,0.00,Wunderground v.1.15,2013-06-15 23:10:00,
2013-06-15 19:15:00,74.0,52.5,29.86,NNW,338,0.0,0.0,47,0.00,,,0.00,Wunderground v.1.15,2013-06-15 23:15:00,
2013-06-15 19:20:00,74.2,52.7,29.86,NNW,338,0.0,0.0,47,0.00,,,0.00,Wunderground v.1.15,2013-06-15 23:20:00,
2013-06-15 19:25:00,74.2,54.4,29.86,NNW,338,0.0,0.0,50,0.00,,,0.00,Wunderground v.1.15,2013-06-15 23:25:00,
2013-06-15 19:30:00,73.9,54.1,29.86,NNW,338,0.0,0.0,50,0.00,,,0.00,Wunderground v.1.15,2013-06-15 23:30:00,
2013-06-15 19:35:00,73.3,52.4,29.86,NNW,338,0.0,0.0,48,0.00,,,0.00,Wunderground v.1.15,2013-06-15 23:35:00,
2013-06-15 19:40:00,72.5,50.5,29.86,NNW,338,0.0,0.0,46,0.00,,,0.00,Wunderground v.1.15,2013-06-15 23:40:00,
2013-06-15 19:45:00,71.5,50.2,29.88,NNW,338,0.0,0.0,47,0.00,,,0.00,Wunderground v.1.15,2013-06-15 23:45:00,
2013-06-15 19:50:00,70.1,48.9,29.88,NNW,338,0.0,0.0,47,0.00,,,0.00,Wunderground v.1.15,2013-06-15 23:50:00,
2013-06-15 19:55:00,69.1,48.6,29.88,NNW,338,0.0,0.0,48,0.00,,,0.00,Wunderground v.1.15,2013-06-15 23:55:00,
2013-06-15 20:00:00,68.6,47.6,29.88,NNW,338,0.0,0.0,47,0.00,,,0.00,Wunderground v.1.15,2013-06-16 00:00:00,
2013-06-15 20:05:00,68.1,46.5,29.88,NNW,338,0.0,0.0,46,0.00,,,0.00,Wunderground v.1.15,2013-06-16 00:05:00,
2013-06-15 20:10:00,67.9,46.3,29.88,NNW,338,0.0,0.0,46,0.00,,,0.00,Wunderground v.1.15,2013-06-16 00:10:00,
2013-06-15 20:15:00,67.8,45.7,29.88,NNW,338,0.0,0.0,45,0.00,,,0.00,Wunderground v.1.15,2013-06-16 00:15:00,
2013-06-15 20:20:00,67.8,46.8,29.88,NNW,338,0.0,0.0,47,0.00,,,0.00,Wunderground v.1.15,2013-06-16 00:20:00,
2013-06-15 20:25:00,67.4,50.7,29.88,NNW,338,0.0,0.0,55,0.00,,,0.00,Wunderground v.1.15,2013-06-16 00:25:00,
2013-06-15 20:30:00,66.3,49.2,29.87,NNW,338,0.0,0.0,54,0.00,,,0.00,Wunderground v.1.15,2013-06-16 00:30:00,
2013-06-15 20:35:00,65.8,51.5,29.87,NNW,338,0.0,0.0,60,0.00,,,0.00,Wunderground v.1.15,2013-06-16 00:35:00,
2013-06-15 20:40:00,65.0,51.2,29.87,NNW,338,0.0,0.0,61,0.00,,,0.00,Wunderground v.1.15,2013-06-16 00:40:00,
2013-06-15 20:45:00,64.5,48.9,29.87,NNW,338,1.0,1.0,57,0.00,,,0.00,Wunderground v.1.15,2013-06-16 00:45:00,
2013-06-15 20:50:00,64.3,48.7,29.87,NNW,338,0.0,0.0,57,0.00,,,0.00,Wunderground v.1.15,2013-06-16 00:50:00,
2013-06-15 20:55:00,64.2,48.2,29.87,NNW,338,0.0,1.0,56,0.00,,,0.00,Wunderground v.1.15,2013-06-16 00:55:00,
2013-06-15 21:00:00,64.5,47.0,29.87,NNW,338,0.0,0.0,53,0.00,,,0.00,Wunderground v.1.15,2013-06-16 01:00:00,
2013-06-15 21:05:00,64.3,48.3,29.87,NNW,338,0.0,1.0,56,0.00,,,0.00,Wunderground v.1.15,2013-06-16 01:05:00,
2013-06-15 21:10:00,64.0,48.0,29.87,NNW,338,0.0,0.0,56,0.00,,,0.00,Wunderground v.1.15,2013-06-16 01:10:00,
2013-06-15 21:15:00,63.7,48.6,29.88,NNW,338,0.0,0.0,58,0.00,,,0.00,Wunderground v.1.15,2013-06-16 01:15:00,
2013-06-15 21:20:00,63.5,48.0,29.88,NNW,338,0.0,0.0,57,0.00,,,0.00,Wunderground v.1.15,2013-06-16 01:20:00,
2013-06-15 21:25:00,64.7,46.7,29.88,NNW,338,0.0,3.0,52,0.00,,,0.00,Wunderground v.1.15,2013-06-16 01:25:00,
2013-06-15 21:30:00,65.3,49.2,29.88,NNW,338,0.0,0.0,56,0.00,,,0.00,Wunderground v.1.15,2013-06-16 01:30:00,
2013-06-15 21:36:00,65.3,47.2,29.88,NNW,338,0.0,0.0,52,0.00,,,0.00,Wunderground v.1.15,2013-06-16 01:36:00,
2013-06-15 21:41:00,65.2,47.1,29.88,NNW,338,0.0,0.0,52,0.00,,,0.00,Wunderground v.1.15,2013-06-16 01:41:00,
2013-06-15 21:46:00,65.5,46.4,29.89,NNW,338,0.0,0.0,50,0.00,,,0.00,Wunderground v.1.15,2013-06-16 01:46:00,
2013-06-15 21:51:00,65.8,46.6,29.89,NNW,338,0.0,0.0,50,0.00,,,0.00,Wunderground v.1.15,2013-06-16 01:51:00,
2013-06-15 21:56:00,65.3,47.2,29.89,NNW,338,0.0,0.0,52,0.00,,,0.00,Wunderground v.1.15,2013-06-16 01:56:00,
2013-06-15 22:01:00,64.5,47.5,29.89,NNW,338,0.0,1.0,54,0.00,,,0.00,Wunderground v.1.15,2013-06-16 02:01:00,
2013-06-15 22:06:00,65.2,46.6,29.89,NNW,338,0.0,1.0,51,0.00,,,0.00,Wunderground v.1.15,2013-06-16 02:06:00,
2013-06-15 22:11:00,65.3,47.2,29.89,NNW,338,0.0,0.0,52,0.00,,,0.00,Wunderground v.1.15,2013-06-16 02:11:00,
2013-06-15 22:16:00,64.2,48.2,29.89,NNW,338,0.0,0.0,56,0.00,,,0.00,Wunderground v.1.15,2013-06-16 02:16:00,
2013-06-15 22:21:00,62.7,48.6,29.89,NNW,338,0.0,1.0,60,0.00,,,0.00,Wunderground v.1.15,2013-06-16 02:21:00,
2013-06-15 22:26:00,61.5,48.8,29.89,NNW,338,0.0,3.0,63,0.00,,,0.00,Wunderground v.1.15,2013-06-16 02:26:00,
2013-06-15 22:31:00,60.7,49.7,29.90,NNW,338,0.0,0.0,67,0.00,,,0.00,Wunderground v.1.15,2013-06-16 02:31:00,
2013-06-15 22:36:00,60.1,49.9,29.90,NNW,338,0.0,1.0,69,0.00,,,0.00,Wunderground v.1.15,2013-06-16 02:36:00,
2013-06-15 22:41:00,60.7,49.7,29.90,NNW,338,0.0,2.0,67,0.00,,,0.00,Wunderground v.1.15,2013-06-16 02:41:00,
2013-06-15 22:46:00,60.9,49.9,29.90,NNW,338,2.0,3.0,67,0.00,,,0.00,Wunderground v.1.15,2013-06-16 02:46:00,
2013-06-15 22:51:00,60.5,49.9,29.90,NNW,338,0.0,1.0,68,0.00,,,0.00,Wunderground v.1.15,2013-06-16 02:51:00,
2013-06-15 22:56:00,60.2,49.6,29.90,NNW,338,1.0,3.0,68,0.00,,,0.00,Wunderground v.1.15,2013-06-16 02:56:00,
2013-06-15 23:01:00,60.4,49.0,29.90,NNW,338,0.0,3.0,66,0.00,,,0.00,Wunderground v.1.15,2013-06-16 03:01:00,
2013-06-15 23:06:00,60.2,49.2,29.90,NNW,338,2.0,3.0,67,0.00,,,0.00,Wunderground v.1.15,2013-06-16 03:06:00,
2013-06-15 23:11:00,59.9,49.7,29.90,NNW,338,2.0,3.0,69,0.00,,,0.00,Wunderground v.1.15,2013-06-16 03:11:00,
2013-06-15 23:16:00,59.9,48.9,29.90,NNW,338,0.0,4.0,67,0.00,,,0.00,Wunderground v.1.15,2013-06-16 03:16:00,
2013-06-15 23:21:00,60.2,48.8,29.90,NNW,338,2.0,3.0,66,0.00,,,0.00,Wunderground v.1.15,2013-06-16 03:21:00,
2013-06-15 23:26:00,59.9,48.9,29.90,NE,46,0.0,6.0,67,0.00,,,0.00,Wunderground v.1.15,2013-06-16 03:26:00,
2013-06-15 23:31:00,59.2,49.0,29.90,NE,54,3.0,3.0,69,0.00,,,0.00,Wunderground v.1.15,2013-06-16 03:31:00,
2013-06-15 23:36:00,59.2,48.6,29.90,ENE,69,1.0,6.0,68,0.00,,,0.00,Wunderground v.1.15,2013-06-16 03:36:00,
2013-06-15 23:41:00,59.2,48.6,29.90,ENE,71,0.0,2.0,68,0.00,,,0.00,Wunderground v.1.15,2013-06-16 03:41:00,
2013-06-15 23:46:00,59.0,48.4,29.90,ENE,71,2.0,3.0,68,0.00,,,0.00,Wunderground v.1.15,2013-06-16 03:46:00,
2013-06-15 23:51:00,58.9,48.7,29.90,ESE,111,0.0,3.0,69,0.00,,,0.00,Wunderground v.1.15,2013-06-16 03:51:00,
2013-06-15 23:56:00,58.9,48.7,29.90,ESE,108,0.0,6.0,69,0.00,,,0.00,Wunderground v.1.15,2013-06-16 03:56:00,